createdAt,value
2022-10-19T00:00:29.599Z,40.83312
2022-10-19T00:05:31.214Z,41.71162
2022-10-19T00:10:32.837Z,41.85399
2022-10-19T00:15:34.492Z,41.79014
2022-10-19T00:20:36.105Z,42.48619
2022-10-19T00:25:37.718Z,42.45121
2022-10-19T00:30:39.359Z,43.60457
2022-10-19T00:35:40.990Z,43.81831
2022-10-19T00:40:42.589Z,44.26578
2022-10-19T00:45:44.186Z,44.20195
2022-10-19T00:50:45.803Z,44.76138
2022-10-19T00:55:47.393Z,45.48804
2022-10-19T01:00:49.020Z,45.29762
2022-10-19T01:05:50.698Z,46.23327
2022-10-19T01:10:52.324Z,46.17276
2022-10-19T01:20:55.589Z,46.80257
2022-10-19T01:25:57.171Z,47.02595
2022-10-19T01:30:58.797Z,47.38882
2022-10-19T01:36:00.405Z,49.01338
2022-10-19T01:41:01.988Z,47.43309
2022-10-19T01:46:03.623Z,47.80688
2022-10-19T01:51:05.197Z,47.02426
2022-10-19T01:56:06.792Z,49.19264
2022-10-19T02:01:08.484Z,49.27263
2022-10-19T02:06:10.184Z,48.01948
2022-10-19T02:11:11.813Z,50.07112
2022-10-19T02:16:13.393Z,49.41418
2022-10-19T02:21:15.024Z,49.48189
2022-10-19T02:26:16.644Z,49.57597
2022-10-19T02:31:18.250Z,50.96801
2022-10-19T02:36:19.866Z,51.17074
2022-10-19T02:41:21.505Z,51.38345
2022-10-19T02:46:23.112Z,51.0731
2022-10-19T02:51:24.704Z,49.96379
2022-10-19T02:56:26.334Z,50.34113
2022-10-19T03:01:27.948Z,51.74233
2022-10-19T03:06:29.547Z,52.99024
2022-10-19T03:11:31.141Z,52.18578
2022-10-19T03:16:32.741Z,52.92099
2022-10-19T03:21:34.466Z,53.54458
2022-10-19T03:26:36.061Z,53.43426
2022-10-19T03:31:37.685Z,53.83087
2022-10-19T03:36:39.540Z,54.47467
2022-10-19T03:41:41.115Z,52.76221
2022-10-19T03:46:43.035Z,51.77883
2022-10-19T03:51:44.654Z,55.02746
2022-10-19T03:56:46.230Z,51.93355
2022-10-19T04:01:48.005Z,56.81931
2022-10-19T04:06:49.624Z,54.69809
2022-10-19T04:11:51.237Z,54.78754
2022-10-19T04:16:52.851Z,60.01361
2022-10-19T04:21:54.514Z,55.89698
2022-10-19T04:26:56.128Z,54.92918
2022-10-19T04:31:57.928Z,55.02371
2022-10-19T04:36:59.695Z,55.70012
2022-10-19T04:42:01.358Z,57.41206
2022-10-19T04:47:02.995Z,56.71484
2022-10-19T04:52:04.661Z,60.03994
2022-10-19T04:57:06.325Z,59.40227
2022-10-19T05:02:07.919Z,56.76111
2022-10-19T05:07:09.525Z,57.26493
2022-10-19T05:12:11.300Z,58.38204
2022-10-19T05:17:13.059Z,56.09504
2022-10-19T05:22:14.700Z,58.8061
2022-10-19T05:27:16.345Z,59.92642
2022-10-19T05:32:17.953Z,58.35691
2022-10-19T05:37:19.653Z,59.15109
2022-10-19T05:42:21.327Z,59.34724
2022-10-19T05:47:26.175Z,57.68461
2022-10-19T05:52:31.085Z,59.89075
2022-10-19T05:57:33.041Z,62.7114
2022-10-19T06:02:34.914Z,61.66239
2022-10-19T06:07:36.983Z,59.30407
2022-10-19T06:12:38.713Z,60.40626
2022-10-19T06:17:40.333Z,58.16865
2022-10-19T06:22:41.958Z,59.95282
2022-10-19T06:27:43.594Z,58.13895
2022-10-19T06:32:45.294Z,62.1408
2022-10-19T06:37:46.952Z,62.26308
2022-10-19T06:42:48.517Z,66.04713
2022-10-19T06:47:50.106Z,62.38553
2022-10-19T06:52:51.747Z,62.25503
2022-10-19T06:57:53.265Z,61.37872
2022-10-19T07:02:54.927Z,60.91811
2022-10-19T07:07:56.655Z,61.85035
2022-10-19T07:12:58.379Z,64.01079
2022-10-19T07:18:00.083Z,62.09225
2022-10-19T07:23:01.722Z,60.7801
2022-10-19T07:28:03.344Z,60.89447
2022-10-19T07:33:04.949Z,61.75141
2022-10-19T07:38:06.579Z,62.96357
2022-10-19T07:43:08.192Z,60.76831
2022-10-19T07:48:09.805Z,63.46941
2022-10-19T07:53:11.400Z,64.03936
2022-10-19T07:58:13.011Z,60.88847
2022-10-19T08:04:31.661Z,61.15805
2022-10-19T08:09:53.292Z,63.52551
2022-10-19T08:14:55.668Z,62.95611
2022-10-19T08:19:18.409Z,63.53476
2022-10-19T08:24:20.037Z,68.72673
2022-10-19T08:29:21.636Z,69.11033
2022-10-19T08:34:23.240Z,67.84121
2022-10-19T08:39:24.862Z,66.98654
2022-10-19T08:44:26.500Z,69.63143
2022-10-19T08:49:28.090Z,67.6283
2022-10-19T08:54:29.948Z,64.1905
2022-10-19T08:59:31.590Z,64.97949
2022-10-19T09:04:33.210Z,65.62126
2022-10-19T09:09:34.903Z,64.28954
2022-10-19T09:14:36.535Z,66.26434
2022-10-19T09:19:38.120Z,64.25821
2022-10-19T09:24:39.705Z,63.56182
2022-10-19T09:29:41.235Z,62.01082
2022-10-19T09:34:42.812Z,61.78044
2022-10-19T09:45:09.745Z,61.13791
2022-10-19T09:50:11.351Z,60.13892
2022-10-19T09:55:13.085Z,63.64394
2022-10-19T10:00:14.745Z,63.15662
2022-10-19T10:05:16.462Z,62.68407
2022-10-19T10:10:18.299Z,63.82153
2022-10-19T10:15:20.479Z,67.25187
2022-10-19T10:20:22.285Z,65.8596
2022-10-19T10:25:24.028Z,63.65309
2022-10-19T10:30:25.812Z,61.63557
2022-10-19T10:35:27.473Z,66.11026
2022-10-19T10:40:29.182Z,65.04562
2022-10-19T10:45:31.151Z,66.76931
2022-10-19T10:50:32.745Z,64.25601
2022-10-19T10:55:34.538Z,64.44694
2022-10-19T11:00:36.330Z,67.15345
2022-10-19T11:05:38.056Z,65.27932
2022-10-19T11:10:39.911Z,67.61796
2022-10-19T11:15:41.602Z,69.43702
2022-10-19T11:20:43.361Z,67.10179
2022-10-19T11:25:45.025Z,67.35798
2022-10-19T11:30:49.874Z,65.91473
2022-10-19T11:35:52.313Z,63.58104
2022-10-19T11:46:01.551Z,65.28068
2022-10-19T11:51:16.897Z,65.38833
2022-10-19T11:56:25.230Z,63.3874
2022-10-19T12:01:36.726Z,64.43076
2022-10-19T12:06:38.527Z,64.54737
2022-10-19T12:11:40.345Z,64.81946
2022-10-19T12:16:42.016Z,69.03894
2022-10-19T12:21:43.606Z,71.00508
2022-10-19T12:26:45.433Z,74.70519
2022-10-19T12:31:47.144Z,73.21714
2022-10-19T12:36:48.785Z,70.26683
2022-10-19T12:41:50.469Z,68.84634
2022-10-19T12:46:53.851Z,76.34152
2022-10-19T12:51:57.241Z,74.69013
2022-10-19T12:56:58.916Z,70.8549
2022-10-19T13:02:00.678Z,72.73757
2022-10-19T13:07:02.309Z,73.70341
2022-10-19T13:12:04.195Z,71.86838
2022-10-19T13:17:06.186Z,79.04742
2022-10-19T13:22:08.061Z,71.1345
2022-10-19T13:27:09.797Z,70.64178
2022-10-19T13:32:11.609Z,70.24658
2022-10-19T13:37:13.327Z,71.58187
2022-10-19T13:42:14.940Z,66.85957
2022-10-19T13:47:16.690Z,67.28534
2022-10-19T13:52:18.339Z,66.65925
2022-10-19T13:57:20.013Z,66.42149
2022-10-19T14:02:21.858Z,66.47319
2022-10-19T14:07:23.708Z,68.92018
2022-10-19T14:12:25.531Z,70.68171
2022-10-19T14:17:27.427Z,70.51013
2022-10-19T14:22:29.016Z,69.43794
2022-10-19T14:27:30.671Z,78.42314
2022-10-19T14:32:32.468Z,79.94144
2022-10-19T14:37:34.424Z,79.45929
2022-10-19T14:42:36.681Z,72.99484
2022-10-19T14:47:38.702Z,74.85199
2022-10-19T14:52:40.375Z,72.85883
2022-10-19T14:57:42.139Z,72.84757
2022-10-19T15:02:43.991Z,71.33428
2022-10-19T15:07:45.598Z,68.76441
2022-10-19T15:12:47.226Z,71.57493
2022-10-19T15:17:49.101Z,72.89451
2022-10-19T15:22:50.695Z,72.97001
2022-10-19T15:27:52.640Z,70.8687
2022-10-19T15:32:54.817Z,71.33347
2022-10-19T15:37:56.648Z,71.57611
2022-10-19T15:42:58.387Z,66.44103
2022-10-19T15:48:00.105Z,68.4915
2022-10-19T15:53:01.938Z,73.25912
2022-10-19T15:58:03.564Z,74.71657
2022-10-19T16:03:05.333Z,70.75366
2022-10-19T16:08:10.096Z,73.0403
2022-10-19T16:13:13.983Z,68.35879
2022-10-19T16:18:15.583Z,67.34705
2022-10-19T16:23:17.464Z,75.00746
2022-10-19T16:28:19.624Z,70.04926
2022-10-19T16:33:21.268Z,64.91982
2022-10-19T16:38:23.013Z,68.12546
2022-10-19T16:43:24.839Z,60.71019
2022-10-19T16:48:26.823Z,62.29991
2022-10-19T16:53:28.499Z,58.20719
2022-10-19T16:58:30.130Z,64.06587
2022-10-19T17:03:31.843Z,62.6523
2022-10-19T17:08:36.823Z,61.73596
2022-10-19T17:13:39.044Z,61.47704
2022-10-19T17:18:40.777Z,60.14917
2022-10-19T17:23:42.499Z,58.22277
2022-10-19T17:28:44.446Z,57.20588
2022-10-19T17:33:46.036Z,54.20754
2022-10-19T17:38:47.675Z,51.67878
2022-10-19T17:43:49.387Z,50.84158
2022-10-19T17:48:51.180Z,51.51141
2022-10-19T17:53:52.852Z,52.40367
2022-10-19T17:58:54.500Z,51.328
2022-10-19T18:03:56.104Z,49.77133
2022-10-19T18:08:57.919Z,48.53241
2022-10-19T18:13:59.752Z,49.3585
2022-10-19T18:19:01.377Z,49.45047
2022-10-19T18:24:02.979Z,49.04933
2022-10-19T18:29:04.744Z,53.43765
2022-10-19T18:34:06.439Z,50.79322
2022-10-19T18:39:08.177Z,51.78095
2022-10-19T18:44:09.793Z,49.21156
2022-10-19T18:49:11.388Z,47.10728
2022-10-19T18:54:13.060Z,46.42512
2022-10-19T18:59:14.954Z,46.65997
2022-10-19T19:04:17.142Z,44.67979
2022-10-19T19:09:18.945Z,47.9661
2022-10-19T19:14:20.975Z,43.95542
2022-10-19T19:19:23.096Z,45.29267
2022-10-19T19:24:25.184Z,42.67733
2022-10-19T19:29:27.257Z,42.18917
2022-10-19T19:34:29.319Z,40.49192
2022-10-19T19:39:31.315Z,40.24625
2022-10-19T19:44:33.380Z,39.16734
2022-10-19T19:49:35.483Z,37.00591
2022-10-19T19:54:37.261Z,38.951
2022-10-19T19:59:39.257Z,38.22383
2022-10-19T20:04:41.937Z,37.47671
2022-10-19T20:09:43.661Z,37.68067
2022-10-19T20:14:45.342Z,36.46295
2022-10-19T20:19:47.043Z,36.37951
2022-10-19T20:24:48.722Z,35.54854
2022-10-19T20:28:08.442Z,34.93275
2022-10-19T20:33:10.775Z,33.39197
2022-10-19T20:38:12.888Z,34.18822
2022-10-19T20:43:14.679Z,33.26609
2022-10-19T20:48:16.755Z,34.54424
2022-10-19T20:53:18.448Z,34.45984
2022-10-19T20:58:20.569Z,33.75199
2022-10-19T21:03:22.337Z,34.71165
2022-10-19T21:08:24.035Z,34.89758
2022-10-19T21:13:26.000Z,35.11935
2022-10-19T21:18:28.359Z,36.56052
2022-10-19T21:23:30.086Z,34.99979
2022-10-19T21:28:32.019Z,36.98216
2022-10-19T21:33:34.010Z,35.67186
2022-10-19T21:38:36.042Z,35.76507
2022-10-19T21:43:38.105Z,34.92719
2022-10-19T21:48:40.183Z,34.97188
2022-10-19T21:53:42.295Z,36.25595
2022-10-19T21:58:44.292Z,34.57266
2022-10-19T22:03:46.196Z,32.73963
2022-10-19T22:08:49.140Z,33.58773
2022-10-19T22:13:50.930Z,34.29259
2022-10-19T22:18:52.532Z,33.18864
2022-10-19T22:23:54.199Z,32.92578
2022-10-19T22:28:56.130Z,33.86077
2022-10-19T22:33:57.932Z,33.72758
2022-10-19T22:38:59.857Z,35.55744
2022-10-19T22:44:01.607Z,35.46142
2022-10-19T22:49:03.349Z,35.05327
2022-10-19T22:54:05.057Z,35.10202
2022-10-19T22:59:06.722Z,36.35462
2022-10-19T23:04:08.375Z,35.81311
2022-10-19T23:09:10.300Z,37.88306
2022-10-19T23:14:12.397Z,36.963
2022-10-19T23:19:14.583Z,38.56121
2022-10-19T23:24:16.264Z,39.71292
2022-10-19T23:29:17.870Z,39.484
2022-10-19T23:34:19.946Z,40.50186
2022-10-19T23:39:21.643Z,40.22745
2022-10-19T23:44:23.258Z,39.09493
2022-10-19T23:49:26.001Z,39.19211
2022-10-19T23:54:27.622Z,39.29539
2022-10-19T23:59:29.474Z,39.9931
